createdAt,value
2023-03-05T00:05:46.982Z,98016.66
2023-03-05T00:09:16.652Z,98022.56
2023-03-05T00:12:32.726Z,98029.52
2023-03-05T00:15:50.469Z,98036.33
2023-03-05T00:19:05.284Z,98041.83
2023-03-05T00:22:22.501Z,98044.52
2023-03-05T00:25:53.471Z,98039.40
2023-03-05T00:29:03.004Z,98048.83
2023-03-05T00:32:23.240Z,98067.36
2023-03-05T00:35:49.477Z,98050.65
2023-03-05T00:39:10.018Z,98046.33
2023-03-05T00:47:38.270Z,98057.86
2023-03-05T00:51:15.646Z,98061.69
2023-03-05T00:54:51.523Z,98075.15
2023-03-05T00:58:34.147Z,98063.58
2023-03-05T01:02:07.754Z,98091.23
2023-03-05T01:05:32.597Z,98084.94
2023-03-05T01:08:55.043Z,98081.66
2023-03-05T01:12:33.651Z,98093.95
2023-03-05T01:16:01.446Z,98098.39
2023-03-05T01:19:31.471Z,98086.44
2023-03-05T01:23:06.378Z,98106.84
2023-03-05T01:26:20.504Z,98090.77
2023-03-05T01:29:59.532Z,98095.60
2023-03-05T01:33:29.885Z,98094.52
2023-03-05T01:37:08.131Z,98113.34
2023-03-05T01:41:04.924Z,98112.71
2023-03-05T01:44:37.428Z,98103.77
2023-03-05T01:48:16.420Z,98100.98
2023-03-05T01:51:48.518Z,98108.50
2023-03-05T01:55:25.687Z,98124.78
2023-03-05T01:58:49.148Z,98117.21
2023-03-05T02:05:56.314Z,98136.95
2023-03-05T02:09:16.048Z,98139.28
2023-03-05T02:12:57.684Z,98124.35
2023-03-05T02:16:23.640Z,98137.39
2023-03-05T02:23:15.727Z,98138.33
2023-03-05T02:26:45.459Z,98154.94
2023-03-05T02:30:21.498Z,98145.14
2023-03-05T02:33:38.508Z,98152.86
2023-03-05T02:37:15.873Z,98160.43
2023-03-05T02:41:06.931Z,98163.56
2023-03-05T02:44:26.332Z,98148.02
2023-03-05T02:47:38.145Z,98159.44
2023-03-05T02:51:21.306Z,98173.21
2023-03-05T02:54:44.881Z,98165.46
2023-03-05T02:58:18.516Z,98148.45
2023-03-05T03:01:47.479Z,98163.96
2023-03-05T03:05:26.670Z,98168.63
2023-03-05T03:08:40.922Z,98157.02
2023-03-05T03:12:10.142Z,98169.08
2023-03-05T03:15:26.088Z,98172.20
2023-03-05T03:18:42.926Z,98162.77
2023-03-05T03:22:02.776Z,98183.23
2023-03-05T03:25:33.785Z,98182.69
2023-03-05T03:29:10.020Z,98177.68
2023-03-05T03:32:27.425Z,98176.80
2023-03-05T03:36:06.665Z,98183.73
2023-03-05T03:39:38.918Z,98186.21
2023-03-05T03:43:03.624Z,98171.83
2023-03-05T03:46:13.416Z,98185.67
2023-03-05T03:49:39.006Z,98169.17
2023-03-05T03:53:01.312Z,98175.33
2023-03-05T03:56:29.316Z,98181.07
2023-03-05T03:59:50.556Z,98190.79
2023-03-05T04:05:52.158Z,98196.02
2023-03-05T04:10:20.243Z,98182.63
2023-03-05T04:13:38.343Z,98184.90
2023-03-05T04:17:10.358Z,98187.52
2023-03-05T04:20:43.646Z,98184.61
2023-03-05T04:27:14.883Z,98187.61
2023-03-05T04:30:51.667Z,98191.05
2023-03-05T04:34:30.961Z,98180.99
2023-03-05T04:41:26.829Z,98195.98
2023-03-05T04:44:36.961Z,98215.15
2023-03-05T04:47:54.440Z,98183.53
2023-03-05T04:51:18.863Z,98200.08
2023-03-05T04:55:04.356Z,98201.86
2023-03-05T04:58:38.056Z,98214.41
2023-03-05T05:03:11.249Z,98222.13
2023-03-05T05:10:10.490Z,98216.13
2023-03-05T05:13:35.167Z,98211.54
2023-03-05T05:20:30.220Z,98225.83
2023-03-05T05:23:44.381Z,98230.30
2023-03-05T05:27:19.353Z,98250.46
2023-03-05T05:30:49.301Z,98244.60
2023-03-05T05:37:54.394Z,98243.05
2023-03-05T05:41:12.306Z,98257.30
2023-03-05T05:45:09.496Z,98254.27
2023-03-05T05:48:48.288Z,98247.47
2023-03-05T05:52:27.551Z,98246.57
2023-03-05T05:55:58.200Z,98250.73
2023-03-05T06:00:26.810Z,98249.98
2023-03-05T06:06:09.905Z,98254.54
2023-03-05T06:09:26.688Z,98242.20
2023-03-05T06:13:02.883Z,98248.33
2023-03-05T06:16:21.074Z,98252.77
2023-03-05T06:19:46.094Z,98267.33
2023-03-05T06:23:07.217Z,98259.32
2023-03-05T06:26:30.321Z,98262.21
2023-03-05T06:30:13.900Z,98267.33
2023-03-05T06:34:08.051Z,98258.13
2023-03-05T06:41:55.219Z,98273.72
2023-03-05T06:49:43.201Z,98264.85
2023-03-05T06:53:20.159Z,98263.48
2023-03-05T06:57:10.382Z,98276.83
2023-03-05T07:00:38.450Z,98308.14
2023-03-05T07:04:12.404Z,98287.80
2023-03-05T07:07:42.215Z,98280.17
2023-03-05T07:11:26.523Z,98278.34
2023-03-05T07:15:13.592Z,98278.59
2023-03-05T07:18:44.560Z,98271.08
2023-03-05T07:22:09.542Z,98277.98
2023-03-05T07:25:42.904Z,98307.44
2023-03-05T07:29:09.896Z,98290.90
2023-03-05T07:33:30.803Z,98288.23
2023-03-05T07:37:25.259Z,98305.15
2023-03-05T07:57:45.700Z,98320.59
2023-03-05T08:01:23.782Z,98329.13
2023-03-05T08:09:34.433Z,98325.98
2023-03-05T08:12:59.901Z,98324.36
2023-03-05T08:16:28.402Z,98318.14
2023-03-05T08:20:22.473Z,98334.77
2023-03-05T08:24:03.747Z,98329.63
2023-03-05T08:27:44.014Z,98329.16
2023-03-05T08:34:45.917Z,98343.14
2023-03-05T08:37:53.870Z,98327.85
2023-03-05T08:41:01.994Z,98327.80
2023-03-05T08:44:10.274Z,98318.21
2023-03-05T08:47:13.744Z,98327.41
2023-03-05T08:50:18.211Z,98332.02
2023-03-05T08:53:26.113Z,98330.94
2023-03-05T09:08:46.033Z,98332.24
2023-03-05T09:12:19.582Z,98342.27
2023-03-05T09:16:15.440Z,98328.59
2023-03-05T09:19:36.301Z,98351.17
2023-03-05T09:23:00.021Z,98340.42
2023-03-05T09:26:27.511Z,98333.72
2023-03-05T09:30:14.634Z,98335.91
2023-03-05T09:33:47.344Z,98324.64
2023-03-05T09:41:53.668Z,98314.27
2023-03-05T09:49:45.994Z,98335.73
2023-03-05T09:52:57.285Z,98332.07
2023-03-05T09:56:11.668Z,98303.39
2023-03-05T09:59:31.441Z,98315.25
2023-03-05T10:05:29.547Z,98324.80
2023-03-05T10:20:42.374Z,98302.00
2023-03-05T10:24:04.476Z,98303.14
2023-03-05T10:27:27.683Z,98330.39
2023-03-05T10:31:01.489Z,98319.38
2023-03-05T10:34:25.033Z,98308.99
2023-03-05T10:38:05.317Z,98336.30
2023-03-05T10:41:55.683Z,98313.90
2023-03-05T10:45:02.057Z,98310.58
2023-03-05T10:48:59.186Z,98304.83
2023-03-05T10:52:21.583Z,98299.46
2023-03-05T10:55:30.591Z,98307.18
2023-03-05T10:58:33.586Z,98313.30
2023-03-05T11:01:39.047Z,98297.86
2023-03-05T11:04:42.076Z,98309.30
2023-03-05T11:07:56.025Z,98291.10
2023-03-05T11:11:21.236Z,98300.63
2023-03-05T11:14:33.045Z,98288.09
2023-03-05T11:18:18.999Z,98276.63
2023-03-05T11:21:28.512Z,98281.75
2023-03-05T11:24:43.676Z,98275.81
2023-03-05T11:28:04.141Z,98268.45
2023-03-05T11:31:40.613Z,98289.95
2023-03-05T11:34:49.780Z,98272.33
2023-03-05T11:38:06.929Z,98282.81
2023-03-05T11:41:14.181Z,98277.66
2023-03-05T11:45:10.735Z,98271.48
2023-03-05T11:48:43.608Z,98276.05
2023-03-05T11:52:23.288Z,98267.52
2023-03-05T12:07:39.736Z,98268.98
2023-03-05T12:10:43.284Z,98277.86
2023-03-05T12:13:56.376Z,98277.42
2023-03-05T12:17:30.261Z,98277.29
2023-03-05T12:21:11.760Z,98253.55
2023-03-05T12:24:28.729Z,98249.45
2023-03-05T12:27:35.085Z,98245.70
2023-03-05T12:30:43.630Z,98250.20
2023-03-05T12:33:48.500Z,98267.80
2023-03-05T12:37:09.719Z,98263.06
2023-03-05T12:40:21.028Z,98267.52
2023-03-05T12:43:33.814Z,98268.59
2023-03-05T12:46:44.964Z,98272.89
2023-03-05T12:49:51.960Z,98263.54
2023-03-05T12:53:06.697Z,98256.91
2023-03-05T12:56:26.194Z,98253.36
2023-03-05T13:00:13.769Z,98247.77
2023-03-05T13:03:23.243Z,98248.79
2023-03-05T13:06:33.736Z,98239.90
2023-03-05T13:09:37.288Z,98244.83
2023-03-05T13:12:49.189Z,98246.98
2023-03-05T13:15:54.542Z,98236.48
2023-03-05T13:19:01.566Z,98238.36
2023-03-05T13:22:12.294Z,98259.98
2023-03-05T13:25:22.195Z,98254.25
2023-03-05T13:28:27.539Z,98246.63
2023-03-05T13:31:32.974Z,98241.92
2023-03-05T13:34:47.075Z,98240.08
2023-03-05T13:37:53.014Z,98236.27
2023-03-05T13:41:08.519Z,98235.81
2023-03-05T13:44:21.912Z,98236.90
2023-03-05T13:47:29.410Z,98240.18
2023-03-05T13:50:43.401Z,98242.25
2023-03-05T13:53:46.438Z,98239.67
2023-03-05T13:56:58.433Z,98241.92
2023-03-05T14:00:04.508Z,98236.73
2023-03-05T14:05:21.126Z,98227.92
2023-03-05T14:08:29.384Z,98215.25
2023-03-05T14:11:34.050Z,98217.55
2023-03-05T14:14:41.922Z,98206.98
2023-03-05T14:17:46.440Z,98211.23
2023-03-05T14:21:11.066Z,98211.44
2023-03-05T14:24:24.122Z,98208.61
2023-03-05T14:27:31.256Z,98218.52
2023-03-05T14:30:40.652Z,98228.60
2023-03-05T14:33:44.779Z,98230.35
2023-03-05T14:36:55.659Z,98222.07
2023-03-05T14:40:19.619Z,98230.64
2023-03-05T14:43:25.018Z,98222.05
2023-03-05T14:46:29.071Z,98227.75
2023-03-05T14:49:33.974Z,98217.61
2023-03-05T14:52:37.505Z,98212.67
2023-03-05T14:55:48.730Z,98219.80
2023-03-05T14:58:52.236Z,98215.48
2023-03-05T15:01:55.690Z,98216.86
2023-03-05T15:05:03.757Z,98212.70
2023-03-05T15:08:13.856Z,98217.41
2023-03-05T15:11:19.584Z,98220.63
2023-03-05T15:14:24.829Z,98221.11
2023-03-05T15:17:43.813Z,98231.85
2023-03-05T15:20:49.018Z,98226.44
2023-03-05T15:23:55.485Z,98228.76
2023-03-05T15:26:59.004Z,98229.45
2023-03-05T15:30:02.535Z,98229.90
2023-03-05T15:33:08.605Z,98232.70
2023-03-05T15:36:11.052Z,98231.14
2023-03-05T15:39:15.705Z,98233.27
2023-03-05T15:42:18.238Z,98233.18
2023-03-05T15:45:21.790Z,98234.70
2023-03-05T15:48:24.695Z,98235.65
2023-03-05T15:51:29.759Z,98241.05
2023-03-05T15:54:36.272Z,98242.19
2023-03-05T15:57:45.939Z,98243.15
2023-03-05T16:00:51.906Z,98242.50
2023-03-05T16:03:57.144Z,98243.61
2023-03-05T16:07:08.121Z,98247.60
2023-03-05T16:10:17.159Z,98252.50
2023-03-05T16:13:21.752Z,98252.09
2023-03-05T16:16:29.015Z,98250.45
2023-03-05T16:19:35.913Z,98253.31
2023-03-05T16:23:29.463Z,98254.36
2023-03-05T16:26:41.178Z,98255.50
2023-03-05T16:29:43.557Z,98255.44
2023-03-05T16:32:48.788Z,98257.75
2023-03-05T16:36:28.357Z,98260.94
2023-03-05T16:39:33.374Z,98260.59
2023-03-05T16:42:38.827Z,98261.40
2023-03-05T16:45:44.871Z,98261.92
2023-03-05T16:48:49.480Z,98263.48
2023-03-05T16:51:56.707Z,98261.17
2023-03-05T16:55:01.651Z,98260.11
2023-03-05T16:58:16.288Z,98258.04
2023-03-05T17:01:26.040Z,98257.60
2023-03-05T17:04:37.831Z,98261.66
2023-03-05T17:07:44.314Z,98264.44
2023-03-05T17:10:49.640Z,98257.10
2023-03-05T17:14:00.003Z,98260.36
2023-03-05T17:17:05.760Z,98256.77
2023-03-05T17:20:14.425Z,98256.05
2023-03-05T17:23:25.203Z,98254.48
2023-03-05T17:26:35.427Z,98251.17
2023-03-05T17:29:45.448Z,98249.83
2023-03-05T17:32:54.112Z,98250.58
2023-03-05T17:35:57.162Z,98244.18
2023-03-05T17:39:04.206Z,98240.81
2023-03-05T17:42:11.735Z,98239.46
2023-03-05T17:45:16.904Z,98236.82
2023-03-05T17:48:21.575Z,98236.40
2023-03-05T17:51:33.229Z,98239.13
2023-03-05T17:54:39.417Z,98240.27
2023-03-05T17:57:44.791Z,98243.48
2023-03-05T18:00:51.403Z,98243.89
2023-03-05T18:05:29.718Z,98241.01
2023-03-05T18:08:39.155Z,98237.98
2023-03-05T18:11:43.849Z,98242.16
2023-03-05T18:14:58.342Z,98242.91
2023-03-05T18:18:04.727Z,98243.82
2023-03-05T18:21:13.179Z,98244.05
2023-03-05T18:24:25.785Z,98245.36
2023-03-05T18:27:38.963Z,98248.74
2023-03-05T18:30:43.895Z,98249.27
2023-03-05T18:33:53.816Z,98245.17
2023-03-05T18:37:03.475Z,98243.65
2023-03-05T18:40:19.246Z,98240.52
2023-03-05T18:43:30.359Z,98239.67
2023-03-05T18:46:50.309Z,98241.10
2023-03-05T18:49:58.099Z,98241.11
2023-03-05T18:53:06.384Z,98241.91
2023-03-05T18:56:18.185Z,98240.12
2023-03-05T18:59:25.780Z,98245.58
2023-03-05T19:07:22.653Z,98247.77
2023-03-05T19:16:27.112Z,98250.86
2023-03-05T19:47:08.535Z,98243.45
2023-03-05T19:50:17.084Z,98248.58
2023-03-05T19:53:33.479Z,98246.23
2023-03-05T20:05:26.469Z,98240.16
2023-03-05T20:13:49.602Z,98235.84
2023-03-05T20:16:59.383Z,98237.19
2023-03-05T20:25:30.700Z,98237.88
2023-03-05T20:40:09.735Z,98200.13
2023-03-05T21:09:22.202Z,98197.02
2023-03-05T21:32:21.396Z,98188.00
2023-03-05T21:36:48.986Z,98185.62
2023-03-05T21:45:18.297Z,98181.98
2023-03-05T22:06:30.181Z,98178.11
2023-03-05T22:11:10.386Z,98177.65
2023-03-05T22:37:58.296Z,98168.84
2023-03-05T22:41:28.734Z,98173.80
2023-03-05T22:45:46.313Z,98171.81
2023-03-05T22:49:25.598Z,98171.45
2023-03-05T22:53:04.376Z,98169.92
2023-03-05T22:56:51.434Z,98163.38
2023-03-05T23:00:53.714Z,98161.23
2023-03-05T23:09:33.609Z,98156.59
2023-03-05T23:13:27.585Z,98152.92
2023-03-05T23:17:27.131Z,98146.33
2023-03-05T23:21:25.712Z,98143.55
2023-03-05T23:25:20.853Z,98141.02
2023-03-05T23:29:57.826Z,98135.93
2023-03-05T23:39:02.602Z,98120.98
2023-03-05T23:43:01.580Z,98125.88
2023-03-05T23:47:28.573Z,98126.27
2023-03-05T23:51:01.524Z,98124.14
2023-03-05T23:54:18.784Z,98126.05
2023-03-05T23:58:23.709Z,98123.56
